Time;durP1;ratioP1;P1;durP2;ratioP2;P2;SDS_P1;SDS_P2;PMS_P1;PMS_P2;Temp;Humidity;BMP_temperature;BMP_pressure;BME280_temperature;BME280_humidity;BME280_pressure;Samples;Min_cycle;Max_cycle;Signal;HPM_P1;HPM_P2
2022/02/01 00:01:44;;;;;;;6.03;4.47;;;;;;;1.87;74.85;92279.03;2064279;69;20598;-71
2022/02/01 00:04:18;;;;;;;;;;;;;;;1.98;75.12;92275.84;2064813;69;20138;-68
2022/02/01 00:07:01;;;;;;;6.80;6.10;;;;;;;1.87;76.18;92278.28;2067432;69;20079;-69
2022/02/01 00:09:36;;;;;;;4.78;3.97;;;;;;;2.15;74.62;92279.97;2071346;69;20155;-69
2022/02/01 00:14:43;;;;;;;2.50;2.30;;;;;;;2.03;74.53;92297.06;2071235;69;20255;-69
2022/02/01 00:20:51;;;;;;;3.78;2.95;;;;;;;2.20;73.34;92295.66;2068228;69;20164;-67
2022/02/01 00:33:48;;;;;;;1.63;1.40;;;;;;;1.97;75.07;92298.59;2068331;69;20133;-75
2022/02/01 00:39:01;;;;;;;1.50;1.30;;;;;;;2.17;74.05;92294.03;2068762;69;20218;-73
2022/02/01 00:41:31;;;;;;;1.80;1.50;;;;;;;2.11;74.40;92294.25;2065090;69;20616;-69
2022/02/01 00:43:58;;;;;;;2.55;1.50;;;;;;;2.05;74.30;92293.72;2068676;69;20222;-70
2022/02/01 00:46:23;;;;;;;1.45;1.13;;;;;;;2.03;75.24;92288.00;2065089;69;20165;-69
2022/02/01 00:48:49;;;;;;;1.80;1.48;;;;;;;2.13;74.66;92291.63;2068396;69;20224;-71
2022/02/01 00:51:15;;;;;;;1.90;1.70;;;;;;;2.02;75.50;92298.38;2068389;69;20145;-69
2022/02/01 00:53:42;;;;;;;1.75;1.50;;;;;;;2.19;73.92;92289.38;2068350;69;20144;-68
2022/02/01 00:56:08;;;;;;;2.03;1.77;;;;;;;2.12;73.71;92301.28;2068156;69;20252;-68
2022/02/01 00:58:34;;;;;;;1.70;1.42;;;;;;;1.94;74.92;92302.50;2068056;69;20156;-68
2022/02/01 01:01:00;;;;;;;1.48;1.20;;;;;;;2.02;74.63;92309.50;2068016;69;20155;-67
2022/02/01 01:03:26;;;;;;;1.30;1.17;;;;;;;2.21;73.88;92314.53;2068220;69;20148;-68
2022/02/01 01:05:53;;;;;;;2.13;1.48;;;;;;;2.32;73.51;92312.63;2067989;69;20128;-67
2022/02/01 01:08:19;;;;;;;1.70;1.17;;;;;;;2.18;73.38;92293.44;2067744;69;20157;-69
2022/02/01 01:10:45;;;;;;;2.25;1.30;;;;;;;2.19;74.13;92310.84;2068434;69;20143;-68
2022/02/01 01:16:02;;;;;;;1.48;1.38;;;;;;;2.15;73.87;92319.56;2068322;69;20152;-68
2022/02/01 01:45:35;;;;;;;1.08;0.95;;;;;;;2.24;73.91;92341.16;2068228;69;20148;-75
2022/02/01 01:53:29;;;;;;;0.60;0.60;;;;;;;2.36;73.38;92327.59;2068144;69;20144;-68
2022/02/01 01:55:56;;;;;;;0.50;0.50;;;;;;;2.31;73.61;92325.78;2068392;69;20159;-70
2022/02/01 01:58:22;;;;;;;0.50;0.45;;;;;;;2.28;73.89;92326.91;2068006;69;20144;-67
2022/02/01 02:03:22;;;;;;;0.47;0.45;;;;;;;2.39;72.84;92342.41;2068012;69;20239;-67
2022/02/01 02:05:47;;;;;;;0.63;0.60;;;;;;;2.40;73.09;92343.88;2067889;69;20695;-67
2022/02/01 02:08:14;;;;;;;0.70;0.70;;;;;;;1.96;75.22;92345.03;2067740;69;20141;-67
2022/02/01 02:10:51;;;;;;;0.75;0.52;;;;;;;2.16;74.86;92356.44;2067838;69;20149;-67
2022/02/01 02:18:20;;;;;;;2.25;2.05;;;;;;;2.29;72.31;92359.69;2067907;69;20135;-69
2022/02/01 02:20:49;;;;;;;0.88;0.50;;;;;;;2.30;72.35;92368.75;2067784;69;20133;-66
2022/02/01 02:23:15;;;;;;;1.50;0.80;;;;;;;2.27;73.29;92381.72;2067643;69;20155;-68
2022/02/01 02:25:40;;;;;;;1.15;0.88;;;;;;;2.33;72.78;92378.72;2067769;69;20160;-71
2022/02/01 02:28:09;;;;;;;1.20;0.90;;;;;;;2.19;73.52;92383.78;2067678;69;20152;-67
2022/02/01 02:30:35;;;;;;;1.40;1.30;;;;;;;2.31;73.02;92389.66;2067686;69;20202;-70
2022/02/01 02:33:04;;;;;;;1.38;1.13;;;;;;;2.28;73.29;92383.19;2064421;69;20180;-67
2022/02/01 02:35:33;;;;;;;0.70;0.70;;;;;;;2.25;72.61;92386.38;2067992;69;20288;-70
2022/02/01 02:38:04;;;;;;;1.77;1.40;;;;;;;2.32;72.83;92387.63;2067888;69;20137;-70
2022/02/01 02:40:45;;;;;;;1.08;0.98;;;;;;;2.36;71.85;92385.19;2067587;69;20149;-68
2022/02/01 02:45:55;;;;;;;1.60;1.50;;;;;;;2.25;73.62;92391.94;2067963;69;20140;-67
2022/02/01 02:48:20;;;;;;;1.10;1.00;;;;;;;2.27;72.18;92376.16;2067680;69;20210;-72
2022/02/01 02:50:46;;;;;;;1.10;1.00;;;;;;;1.90;74.93;92377.84;2067566;69;20217;-71
2022/02/01 02:53:11;;;;;;;1.20;1.10;;;;;;;1.96;74.74;92391.50;2067555;69;20156;-69
2022/02/01 02:55:37;;;;;;;1.10;1.00;;;;;;;2.24;73.00;92393.94;2064724;69;20159;-70
2022/02/01 02:58:02;;;;;;;1.48;1.00;;;;;;;2.29;73.07;92387.47;2064817;69;20220;-76
2022/02/01 03:00:29;;;;;;;1.05;0.95;;;;;;;2.27;71.38;92381.72;2068079;69;20167;-68
2022/02/01 03:02:54;;;;;;;2.33;2.13;;;;;;;2.25;72.50;92391.94;2064347;69;20144;-67
2022/02/01 03:05:20;;;;;;;2.33;1.90;;;;;;;2.35;71.96;92386.50;2067574;69;20164;-71
2022/02/01 03:07:45;;;;;;;2.95;2.65;;;;;;;2.26;73.13;92385.06;2068255;69;20672;-72
2022/02/01 03:10:11;;;;;;;2.33;2.10;;;;;;;2.24;72.85;92401.53;2067892;69;20623;-69
2022/02/01 03:13:26;;;;;;;1.90;1.70;;;;;;;2.22;73.03;92404.91;2067960;69;20239;-68
2022/02/01 03:20:44;;;;;;;1.80;1.42;;;;;;;2.18;73.17;92418.44;2068217;69;20235;-71
2022/02/01 03:23:10;;;;;;;1.90;1.40;;;;;;;2.27;72.41;92420.59;2067871;69;20129;-71
2022/02/01 03:25:36;;;;;;;1.38;1.27;;;;;;;2.19;73.09;92413.59;2067686;69;20176;-75
2022/02/01 03:28:01;;;;;;;1.63;1.52;;;;;;;2.24;72.19;92429.31;2067815;69;20129;-72
2022/02/01 03:30:27;;;;;;;1.70;1.58;;;;;;;2.27;72.80;92442.09;2068042;69;20194;-65
2022/02/01 03:32:53;;;;;;;1.73;1.63;;;;;;;2.24;72.79;92448.75;2067537;69;20163;-72
2022/02/01 03:35:18;;;;;;;1.80;1.50;;;;;;;2.34;72.10;92471.88;2064174;69;20241;-68
2022/02/01 03:37:44;;;;;;;1.33;1.23;;;;;;;2.21;72.58;92478.41;2064170;69;20171;-71
2022/02/01 03:40:15;;;;;;;1.50;1.40;;;;;;;2.09;73.19;92469.00;2064434;69;20141;-67
2022/02/01 03:42:41;;;;;;;4.13;1.60;;;;;;;2.10;73.39;92489.19;2067936;69;20148;-67
2022/02/01 03:45:07;;;;;;;1.38;1.20;;;;;;;2.11;74.30;92504.53;2064725;69;20144;-69
2022/02/01 03:47:34;;;;;;;1.33;1.23;;;;;;;1.65;75.89;92483.22;2067787;69;20164;-67
2022/02/01 03:50:00;;;;;;;1.70;1.08;;;;;;;1.97;72.79;92504.03;2067438;69;20206;-77
2022/02/01 03:52:26;;;;;;;1.65;1.50;;;;;;;2.03;73.16;92505.31;2067651;69;20137;-69
2022/02/01 03:54:52;;;;;;;1.30;1.20;;;;;;;2.01;73.37;92524.56;2067714;69;20129;-67
2022/02/01 03:57:18;;;;;;;2.40;1.00;;;;;;;1.73;73.81;92522.78;2064383;69;20647;-67
2022/02/01 03:59:45;;;;;;;0.80;0.80;;;;;;;1.58;75.78;92510.97;2067423;69;20125;-70
2022/02/01 04:02:12;;;;;;;1.10;1.00;;;;;;;1.92;75.04;92504.97;2067523;69;20147;-70
2022/02/01 04:04:38;;;;;;;0.90;0.90;;;;;;;2.03;73.63;92521.25;2067949;69;20152;-68
2022/02/01 04:07:06;;;;;;;0.82;0.82;;;;;;;2.19;71.39;92527.47;2067938;69;20140;-67
2022/02/01 04:09:33;;;;;;;2.30;2.10;;;;;;;2.07;72.10;92520.88;2068132;69;20148;-67
2022/02/01 04:12:00;;;;;;;1.40;1.30;;;;;;;2.04;73.81;92523.47;2068064;69;20620;-67
2022/02/01 04:14:30;;;;;;;1.77;1.67;;;;;;;2.23;68.96;92534.13;2067866;69;20168;-67
2022/02/01 04:16:58;;;;;;;0.88;0.80;;;;;;;2.23;71.17;92539.69;2065658;69;20191;-66
2022/02/01 04:19:25;;;;;;;0.70;0.70;;;;;;;2.19;72.07;92544.13;2068502;69;20188;-68
2022/02/01 04:22:00;;;;;;;1.20;1.10;;;;;;;2.03;72.46;92538.66;2062734;69;20186;-68
2022/02/01 04:24:29;;;;;;;2.20;2.00;;;;;;;2.18;73.21;92546.19;2065644;69;20636;-73
2022/02/01 04:26:55;;;;;;;4.07;2.85;;;;;;;1.86;74.58;92540.53;2068541;69;20148;-76
2022/02/01 04:29:20;;;;;;;3.63;3.15;;;;;;;2.04;74.51;92547.72;2068564;69;20176;-75
2022/02/01 04:31:46;;;;;;;5.82;4.93;;;;;;;2.13;73.53;92544.34;2068647;69;20156;-71
2022/02/01 04:34:12;;;;;;;4.15;3.50;;;;;;;2.24;71.52;92532.09;2068483;69;20508;-73
2022/02/01 04:36:38;;;;;;;2.80;2.47;;;;;;;2.10;73.72;92539.16;2065134;69;20625;-69
2022/02/01 04:39:06;;;;;;;2.58;2.33;;;;;;;2.17;73.82;92538.41;2068420;69;20132;-75
2022/02/01 04:41:32;;;;;;;3.05;2.50;;;;;;;2.20;73.85;92540.81;2068161;69;20145;-75
2022/02/01 04:43:58;;;;;;;2.22;2.03;;;;;;;2.21;74.00;92536.00;2068391;69;20194;-69
2022/02/01 04:46:25;;;;;;;2.20;2.00;;;;;;;2.16;73.72;92537.69;2068490;69;20152;-69
2022/02/01 04:48:52;;;;;;;2.30;2.10;;;;;;;2.17;73.79;92546.75;2068455;69;20176;-68
2022/02/01 04:51:20;;;;;;;2.63;1.80;;;;;;;2.12;73.96;92556.03;2068412;69;20218;-68
2022/02/01 04:53:46;;;;;;;2.30;1.90;;;;;;;2.26;73.29;92568.41;2068441;69;20505;-70
2022/02/01 04:56:17;;;;;;;1.88;1.50;;;;;;;2.24;73.94;92579.31;2068518;69;20164;-68
2022/02/01 04:58:43;;;;;;;2.13;1.40;;;;;;;2.20;73.42;92570.63;2068546;69;20161;-69
2022/02/01 05:01:09;;;;;;;1.30;1.20;;;;;;;2.34;72.67;92565.56;2068497;69;20176;-70
2022/02/01 05:03:34;;;;;;;2.72;1.83;;;;;;;2.27;73.19;92572.66;2068603;69;20496;-74
2022/02/01 05:06:02;;;;;;;8.48;5.70;;;;;;;2.28;73.41;92579.66;2068306;69;20155;-73
2022/02/01 05:08:28;;;;;;;6.00;5.40;;;;;;;2.24;73.84;92591.16;2065159;69;20194;-76
2022/02/01 05:10:54;;;;;;;6.90;5.97;;;;;;;2.16;74.26;92598.78;2068494;69;20577;-72
2022/02/01 05:15:49;;;;;;;2.53;1.80;;;;;;;2.35;72.18;92590.03;2068326;69;20133;-72
2022/02/01 05:18:18;;;;;;;2.10;1.90;;;;;;;2.36;71.36;92604.66;2068423;69;20500;-71
2022/02/01 05:20:50;;;;;;;1.50;1.40;;;;;;;2.20;72.74;92607.47;2068300;69;20169;-68
2022/02/01 05:23:17;;;;;;;1.52;1.40;;;;;;;2.25;72.59;92606.53;2065298;69;20141;-71
2022/02/01 05:25:43;;;;;;;2.85;2.17;;;;;;;2.43;71.37;92612.22;2068690;69;20176;-68
2022/02/01 05:28:10;;;;;;;5.70;4.15;;;;;;;2.36;72.32;92613.00;2068347;69;20140;-68
2022/02/01 05:30:35;;;;;;;7.55;4.40;;;;;;;2.35;72.55;92630.97;2068377;69;20176;-72
2022/02/01 05:33:01;;;;;;;6.20;4.15;;;;;;;2.24;72.05;92632.09;2068413;69;20168;-72
2022/02/01 05:35:28;;;;;;;6.50;4.57;;;;;;;1.88;74.75;92630.31;2068337;69;20576;-75
2022/02/01 05:37:53;;;;;;;6.88;4.95;;;;;;;1.94;75.20;92638.44;2068333;69;20614;-72
2022/02/01 05:40:28;;;;;;;6.82;4.78;;;;;;;2.12;73.89;92650.44;2068395;69;20198;-69
2022/02/01 05:43:09;;;;;;;7.85;5.88;;;;;;;2.21;73.65;92631.19;2068372;69;20152;-69
2022/02/01 05:45:36;;;;;;;9.32;8.30;;;;;;;2.18;73.63;92634.31;2068327;69;20222;-69
2022/02/01 05:48:02;;;;;;;10.57;8.20;;;;;;;2.15;73.72;92638.22;2068322;69;20152;-72
2022/02/01 05:50:28;;;;;;;5.55;3.30;;;;;;;2.24;71.67;92643.94;2068301;69;20148;-72
2022/02/01 05:52:54;;;;;;;5.68;3.97;;;;;;;2.18;73.57;92651.00;2068538;69;20183;-71
2022/02/01 05:55:19;;;;;;;6.30;3.53;;;;;;;2.15;73.97;92649.31;2068371;69;20196;-71
2022/02/01 05:57:45;;;;;;;6.25;3.20;;;;;;;2.05;73.62;92649.16;2068381;69;20605;-72
2022/02/01 06:00:11;;;;;;;5.43;3.83;;;;;;;1.99;74.46;92660.44;2068312;69;20144;-75
2022/02/01 06:02:40;;;;;;;10.65;5.13;;;;;;;2.09;74.16;92663.41;2068337;69;20157;-73
2022/02/01 06:05:06;;;;;;;11.98;5.60;;;;;;;2.24;73.27;92651.53;2068261;69;20148;-68
2022/02/01 06:07:32;;;;;;;8.10;5.88;;;;;;;2.06;73.95;92661.00;2068449;69;20228;-69
2022/02/01 06:09:57;;;;;;;8.20;6.00;;;;;;;2.14;73.65;92675.63;2068446;69;20620;-72
2022/02/01 06:12:23;;;;;;;7.30;4.65;;;;;;;2.14;73.62;92681.91;2068369;69;20608;-70
2022/02/01 06:14:48;;;;;;;5.80;3.83;;;;;;;2.19;73.33;92689.31;2068336;69;20177;-69
2022/02/01 06:17:14;;;;;;;3.42;2.80;;;;;;;2.13;73.00;92702.66;2068429;69;20156;-73
2022/02/01 06:19:39;;;;;;;10.70;4.93;;;;;;;2.20;71.34;92703.94;2068372;69;20184;-71
2022/02/01 06:22:05;;;;;;;9.85;4.72;;;;;;;1.81;73.25;92694.88;2068349;69;20148;-73
2022/02/01 06:24:32;;;;;;;4.25;2.47;;;;;;;1.82;75.07;92701.91;2068316;69;20144;-76
2022/02/01 06:26:58;;;;;;;8.40;2.85;;;;;;;2.09;73.83;92718.22;2065083;69;20148;-74
2022/02/01 06:29:24;;;;;;;8.13;4.32;;;;;;;1.91;75.11;92711.72;2068308;69;20620;-74
2022/02/01 06:31:49;;;;;;;8.93;5.13;;;;;;;1.71;76.06;92710.59;2065037;69;20125;-69
2022/02/01 06:34:15;;;;;;;7.13;4.60;;;;;;;2.00;74.56;92706.34;2068217;69;20678;-69
2022/02/01 06:36:41;;;;;;;8.63;4.60;;;;;;;2.01;74.64;92723.75;2068294;69;20128;-69
2022/02/01 06:39:08;;;;;;;7.70;5.78;;;;;;;2.14;74.00;92720.06;2064962;69;20183;-68
2022/02/01 06:41:36;;;;;;;8.32;5.68;;;;;;;2.21;73.39;92719.31;2068296;69;20153;-76
2022/02/01 06:44:10;;;;;;;8.00;5.60;;;;;;;2.17;73.21;92708.59;2068380;69;20144;-75
2022/02/01 06:46:36;;;;;;;8.07;4.80;;;;;;;2.17;73.53;92718.94;2065121;69;20612;-73
2022/02/01 06:49:05;;;;;;;8.00;4.63;;;;;;;2.17;73.55;92719.69;2068272;69;20132;-77
2022/02/01 06:51:31;;;;;;;6.55;3.92;;;;;;;2.12;71.80;92717.09;2068290;69;20484;-79
2022/02/01 06:53:56;;;;;;;5.43;4.03;;;;;;;2.23;72.82;92727.81;2068254;69;20735;-70
2022/02/01 06:56:33;;;;;;;10.23;3.88;;;;;;;2.08;74.27;92738.94;2068039;69;20213;-75
2022/02/01 06:59:00;;;;;;;6.28;4.22;;;;;;;2.13;74.26;92735.25;2068156;69;20616;-69
2022/02/01 07:01:26;;;;;;;8.45;5.78;;;;;;;1.99;75.02;92737.47;2068298;69;20228;-69
2022/02/01 07:03:52;;;;;;;17.38;9.50;;;;;;;2.06;74.54;92728.38;2068302;69;20144;-70
2022/02/01 07:06:18;;;;;;;16.42;10.73;;;;;;;2.15;74.15;92719.50;2067480;69;20161;-72
2022/02/01 07:08:46;;;;;;;10.73;7.72;;;;;;;2.22;74.10;92718.75;2068251;69;20141;-71
2022/02/01 07:11:12;;;;;;;12.35;8.68;;;;;;;2.23;73.64;92719.50;2068207;69;20286;-70
2022/02/01 07:13:38;;;;;;;7.07;4.43;;;;;;;2.13;72.70;92727.66;2068313;69;20152;-69
2022/02/01 07:16:05;;;;;;;10.73;7.32;;;;;;;2.04;74.88;92728.19;2068132;69;20160;-68
2022/02/01 07:18:31;;;;;;;8.57;5.78;;;;;;;2.09;74.13;92738.38;2068106;69;20156;-73
2022/02/01 07:20:57;;;;;;;9.98;5.78;;;;;;;2.27;73.04;92740.06;2068007;69;20198;-71
2022/02/01 07:23:25;;;;;;;8.63;5.53;;;;;;;2.25;73.92;92751.00;2068130;69;20612;-74
2022/02/01 07:25:51;;;;;;;8.88;6.35;;;;;;;2.27;74.12;92767.84;2068128;69;20635;-71
2022/02/01 07:28:18;;;;;;;12.07;7.15;;;;;;;2.24;73.97;92748.75;2068271;69;20241;-72
2022/02/01 07:30:45;;;;;;;6.40;4.85;;;;;;;2.21;74.21;92766.53;2068137;69;20594;-69
2022/02/01 07:33:10;;;;;;;5.78;3.65;;;;;;;2.33;72.81;92773.19;2068120;69;20239;-70
2022/02/01 07:35:39;;;;;;;5.00;3.50;;;;;;;2.45;72.13;92779.13;2068124;69;20160;-69
2022/02/01 07:38:06;;;;;;;4.45;3.45;;;;;;;2.41;73.02;92773.19;2068181;69;20155;-70
2022/02/01 07:40:32;;;;;;;2.65;2.10;;;;;;;2.25;73.89;92762.09;2068587;69;20592;-71
2022/02/01 07:42:58;;;;;;;3.20;1.98;;;;;;;2.33;73.82;92762.09;2068631;69;20145;-69
2022/02/01 07:45:28;;;;;;;4.80;2.50;;;;;;;2.32;73.96;92771.72;2065297;69;20141;-74
2022/02/01 07:47:56;;;;;;;3.00;2.40;;;;;;;2.31;74.40;92775.06;2068572;69;20488;-71
2022/02/01 07:50:22;;;;;;;3.03;2.33;;;;;;;2.20;74.57;92779.69;2065283;69;20137;-68
2022/02/01 07:52:48;;;;;;;5.65;3.20;;;;;;;2.09;75.53;92798.75;2068717;69;20156;-70
2022/02/01 07:55:13;;;;;;;4.82;2.83;;;;;;;2.30;74.38;92802.09;2070527;69;20195;-69
2022/02/01 07:57:40;;;;;;;2.72;2.35;;;;;;;2.39;73.86;92803.59;2069138;69;20219;-75
2022/02/01 08:00:08;;;;;;;3.80;2.60;;;;;;;2.34;73.94;92816.38;2068687;69;20652;-70
2022/02/01 08:02:35;;;;;;;6.88;3.90;;;;;;;2.40;74.21;92819.69;2068579;69;20188;-71
2022/02/01 08:05:01;;;;;;;5.55;3.50;;;;;;;2.47;74.23;92818.94;2065267;69;20143;-71
2022/02/01 08:07:27;;;;;;;3.72;3.15;;;;;;;2.52;73.86;92811.72;2068649;69;20159;-76
2022/02/01 08:09:57;;;;;;;5.07;3.67;;;;;;;2.45;73.84;92807.66;2065276;69;20145;-71
2022/02/01 08:20:29;;;;;;;1.63;1.48;;;;;;;2.61;72.16;92827.88;2062837;69;20167;-74
2022/02/01 08:25:23;;;;;;;3.63;1.80;;;;;;;2.68;71.84;92813.22;2068489;69;20608;-72
2022/02/01 08:27:48;;;;;;;2.42;1.92;;;;;;;2.58;71.58;92795.63;2068620;69;20176;-70
2022/02/01 08:30:14;;;;;;;2.45;1.65;;;;;;;2.40;72.81;92808.59;2068525;69;20601;-71
2022/02/01 08:32:40;;;;;;;1.90;1.65;;;;;;;2.67;73.18;92814.50;2068733;69;20288;-68
2022/02/01 08:35:06;;;;;;;3.08;2.20;;;;;;;2.49;74.02;92819.16;2068402;69;20145;-67
2022/02/01 08:37:32;;;;;;;4.20;2.30;;;;;;;2.69;73.33;92831.38;2068620;69;20497;-69
2022/02/01 08:39:58;;;;;;;3.17;1.85;;;;;;;2.73;72.29;92837.28;2068599;69;20191;-78
2022/02/01 08:42:24;;;;;;;3.03;1.92;;;;;;;2.46;71.54;92848.03;2068500;69;20172;-69
2022/02/01 08:44:50;;;;;;;2.25;1.38;;;;;;;2.72;69.56;92860.09;2068631;69;20588;-67
2022/02/01 08:47:16;;;;;;;3.03;1.90;;;;;;;2.69;70.70;92853.59;2068497;69;20141;-68
2022/02/01 08:49:42;;;;;;;2.30;1.90;;;;;;;2.15;73.66;92861.13;2068292;69;20227;-72
2022/02/01 08:52:13;;;;;;;2.67;1.90;;;;;;;2.54;72.23;92854.34;2068504;69;20148;-71
2022/02/01 08:54:39;;;;;;;4.20;3.13;;;;;;;2.55;71.90;92855.09;2068491;69;20227;-76
2022/02/01 08:57:22;;;;;;;8.70;3.90;;;;;;;2.11;73.90;92854.47;2068378;69;20604;-74
2022/02/01 09:00:01;;;;;;;6.18;4.45;;;;;;;2.50;73.07;92865.09;2068499;69;20148;-76
2022/02/01 09:02:27;;;;;;;8.13;4.45;;;;;;;2.73;72.81;92859.53;2068613;69;20152;-69
2022/02/01 09:04:54;;;;;;;7.10;4.50;;;;;;;2.85;72.76;92870.31;2068195;69;20545;-72
2022/02/01 09:07:20;;;;;;;6.95;4.32;;;;;;;2.83;71.73;92872.88;2068420;69;20244;-73
2022/02/01 09:09:46;;;;;;;1.80;1.40;;;;;;;2.73;69.73;92890.13;2068474;69;20596;-70
2022/02/01 09:12:12;;;;;;;1.95;1.52;;;;;;;2.86;68.12;92894.75;2068400;69;20155;-70
2022/02/01 09:14:38;;;;;;;1.05;0.90;;;;;;;2.59;67.38;92886.03;2068402;69;20206;-68
2022/02/01 09:17:04;;;;;;;0.70;0.63;;;;;;;2.80;66.71;92891.44;2068436;69;20156;-69
2022/02/01 09:19:30;;;;;;;0.85;0.73;;;;;;;2.58;66.79;92890.13;2068372;69;20259;-71
2022/02/01 09:21:57;;;;;;;1.00;0.80;;;;;;;2.67;66.62;92913.84;2068528;69;20235;-75
2022/02/01 09:24:24;;;;;;;5.32;3.15;;;;;;;2.61;67.45;92924.38;2068410;69;20136;-69
2022/02/01 09:26:50;;;;;;;4.63;2.75;;;;;;;2.34;69.75;92929.53;2068403;69;20176;-74
2022/02/01 09:29:18;;;;;;;4.22;2.95;;;;;;;2.73;70.17;92931.81;2065079;69;20282;-72
2022/02/01 09:31:44;;;;;;;4.13;2.40;;;;;;;3.04;69.16;92940.94;2068565;69;20258;-69
2022/02/01 09:34:09;;;;;;;3.35;1.98;;;;;;;3.03;70.74;92938.72;2068312;69;20608;-68
2022/02/01 09:36:35;;;;;;;3.63;2.10;;;;;;;3.27;68.53;92924.22;2068515;69;20167;-72
2022/02/01 09:39:01;;;;;;;7.30;3.85;;;;;;;3.16;69.32;92919.06;2068452;69;20149;-70
2022/02/01 09:41:28;;;;;;;3.75;2.58;;;;;;;3.37;69.17;92921.63;2068473;69;20156;-71
2022/02/01 09:43:54;;;;;;;5.20;2.50;;;;;;;3.27;67.74;92942.97;2068455;69;20162;-68
2022/02/01 09:46:21;;;;;;;4.28;2.90;;;;;;;3.46;65.42;92931.44;2068604;69;20157;-68
2022/02/01 09:48:47;;;;;;;4.28;2.40;;;;;;;3.08;66.68;92925.91;2068472;69;20210;-71
2022/02/01 09:51:12;;;;;;;4.22;2.80;;;;;;;3.13;67.96;92944.47;2064975;69;20228;-73
2022/02/01 09:53:39;;;;;;;6.90;3.35;;;;;;;3.31;67.28;92949.63;2068429;69;20299;-77
2022/02/01 09:56:05;;;;;;;5.05;2.80;;;;;;;3.52;67.81;92943.84;2068219;69;20607;-77
2022/02/01 09:58:33;;;;;;;5.97;2.92;;;;;;;3.44;66.17;92945.19;2068252;69;20144;-75
2022/02/01 10:01:02;;;;;;;6.32;3.00;;;;;;;3.61;66.76;92941.78;2068189;69;20226;-75
2022/02/01 10:03:28;;;;;;;5.32;2.30;;;;;;;3.37;67.57;92951.50;2068347;69;20492;-74
2022/02/01 10:06:11;;;;;;;4.80;4.07;;;;;;;3.42;67.26;92956.84;2068282;69;20155;-73
2022/02/01 10:08:38;;;;;;;5.70;2.50;;;;;;;3.31;67.38;92955.19;2068610;69;20601;-71
2022/02/01 10:11:08;;;;;;;3.20;2.38;;;;;;;3.75;66.56;92946.59;2068378;69;20140;-74
2022/02/01 10:13:37;;;;;;;3.42;2.30;;;;;;;3.91;65.68;92938.19;2068381;69;20180;-75
2022/02/01 10:16:11;;;;;;;3.63;2.53;;;;;;;3.76;65.69;92947.34;2065064;69;20473;-74
2022/02/01 10:18:37;;;;;;;4.68;2.83;;;;;;;3.92;67.16;92950.81;2068435;69;20137;-71
2022/02/01 10:21:11;;;;;;;3.72;2.63;;;;;;;4.06;66.68;92963.94;2068214;69;20191;-74
2022/02/01 10:23:39;;;;;;;5.45;2.95;;;;;;;4.03;65.94;92964.34;2068384;69;20141;-69
2022/02/01 10:26:09;;;;;;;8.25;4.75;;;;;;;3.96;65.71;92956.75;2068565;69;20149;-71
2022/02/01 10:31:46;;;;;;;9.95;6.13;;;;;;;3.52;67.47;92938.28;2068405;69;20511;-69
2022/02/01 10:34:27;;;;;;;4.80;3.13;;;;;;;3.61;66.22;92939.00;2068159;69;20205;-71
2022/02/01 10:36:57;;;;;;;4.05;1.80;;;;;;;3.49;65.04;92935.91;2068296;69;20155;-73
2022/02/01 10:39:25;;;;;;;3.17;1.90;;;;;;;3.98;63.85;92940.22;2068318;69;20157;-74
2022/02/01 10:42:00;;;;;;;4.07;1.75;;;;;;;4.15;64.12;92928.44;2068290;69;20223;-68
2022/02/01 10:44:49;;;;;;;2.88;1.70;;;;;;;4.04;60.67;92904.53;2068261;69;20232;-71
2022/02/01 10:47:30;;;;;;;4.13;2.13;;;;;;;3.86;63.44;92906.47;2068305;69;20156;-78
2022/02/01 10:50:03;;;;;;;7.85;1.77;;;;;;;4.07;65.41;92904.13;2068494;69;20540;-73
2022/02/01 10:52:35;;;;;;;1.38;1.20;;;;;;;4.20;66.25;92905.19;2068251;69;20152;-73
2022/02/01 10:55:04;;;;;;;2.40;1.42;;;;;;;4.33;65.44;92896.59;2068271;69;20608;-70
2022/02/01 10:57:29;;;;;;;3.03;2.50;;;;;;;4.43;63.93;92902.28;2068230;69;20183;-69
2022/02/01 10:59:55;;;;;;;3.53;2.92;;;;;;;4.41;63.37;92900.09;2068229;69;20218;-72
2022/02/01 11:02:23;;;;;;;8.10;3.80;;;;;;;4.43;62.61;92897.47;2068245;69;20592;-74
2022/02/01 11:04:52;;;;;;;3.22;1.98;;;;;;;3.87;62.87;92905.16;2068246;69;20144;-74
2022/02/01 11:07:18;;;;;;;3.65;2.50;;;;;;;4.24;62.73;92903.50;2068206;69;20155;-73
2022/02/01 11:09:44;;;;;;;3.03;2.22;;;;;;;4.41;63.64;92896.56;2068226;69;20148;-71
2022/02/01 11:12:11;;;;;;;6.93;5.40;;;;;;;4.26;63.41;92886.97;2068211;69;20161;-74
2022/02/01 11:14:41;;;;;;;5.93;4.30;;;;;;;4.43;63.29;92897.47;2068564;69;20145;-69
2022/02/01 11:17:10;;;;;;;11.88;5.55;;;;;;;4.64;63.27;92894.38;2065271;69;20580;-74
2022/02/01 11:19:56;;;;;;;5.78;3.97;;;;;;;4.82;63.18;92897.97;2068625;69;20143;-74
2022/02/01 11:22:35;;;;;;;8.10;5.90;;;;;;;4.71;62.64;92887.25;2068657;69;20148;-70
2022/02/01 11:25:20;;;;;;;7.68;3.50;;;;;;;4.16;62.14;92888.13;2065373;69;20141;-72
2022/02/01 11:30:48;;;;;;;17.65;13.50;;;;;;;4.75;61.95;92910.63;2068709;69;20152;-72
2022/02/01 11:33:13;;;;;;;10.52;5.30;;;;;;;4.77;62.04;92910.84;2069800;69;20167;-73
2022/02/01 11:35:40;;;;;;;11.13;7.30;;;;;;;4.88;61.33;92906.09;2069597;69;20612;-74
2022/02/01 11:38:17;;;;;;;9.40;7.15;;;;;;;4.61;62.08;92906.66;2065370;69;20642;-70
2022/02/01 11:40:49;;;;;;;10.07;7.82;;;;;;;4.79;61.46;92897.03;2068567;69;20145;-72
2022/02/01 11:43:17;;;;;;;3.35;2.33;;;;;;;4.69;58.93;92901.03;2068717;69;20144;-72
2022/02/01 11:45:51;;;;;;;4.28;2.10;;;;;;;4.59;58.43;92893.28;2068539;69;20148;-68
2022/02/01 11:48:22;;;;;;;3.85;2.47;;;;;;;4.81;60.62;92890.88;2068659;69;20179;-75
2022/02/01 11:50:54;;;;;;;2.63;1.95;;;;;;;4.78;61.63;92894.84;2068583;69;20145;-70
2022/02/01 11:53:23;;;;;;;3.03;1.73;;;;;;;4.76;61.59;92886.28;2068606;69;20640;-74
2022/02/01 11:55:51;;;;;;;1.83;1.25;;;;;;;4.69;63.42;92892.66;2068481;69;20563;-75
2022/02/01 11:58:32;;;;;;;1.63;1.23;;;;;;;4.82;62.52;92892.38;2068688;69;20202;-70
2022/02/01 12:01:00;;;;;;;2.40;2.10;;;;;;;4.38;62.51;92895.63;2068555;69;20164;-72
2022/02/01 12:03:29;;;;;;;5.90;3.15;;;;;;;3.63;61.38;92884.25;2068631;69;20155;-70
2022/02/01 12:05:59;;;;;;;5.75;2.50;;;;;;;4.48;62.13;92890.19;2068504;69;20144;-70
2022/02/01 12:08:31;;;;;;;3.25;1.85;;;;;;;4.66;61.53;92891.75;2068462;69;20255;-72
2022/02/01 12:11:01;;;;;;;4.80;1.83;;;;;;;4.85;62.13;92886.38;2065239;69;20217;-69
2022/02/01 12:13:28;;;;;;;6.63;2.42;;;;;;;4.84;62.09;92884.91;2068348;69;20145;-72
2022/02/01 12:15:59;;;;;;;3.15;1.77;;;;;;;4.97;62.89;92880.38;2068342;69;20155;-74
2022/02/01 12:18:31;;;;;;;4.70;2.30;;;;;;;5.00;62.85;92876.44;2068393;69;20156;-72
2022/02/01 12:21:24;;;;;;;3.17;2.13;;;;;;;4.98;62.90;92881.84;2068316;69;20144;-73
2022/02/01 12:23:51;;;;;;;3.78;2.78;;;;;;;5.04;62.48;92891.47;2068546;69;20168;-75
2022/02/01 12:26:18;;;;;;;6.90;3.80;;;;;;;5.01;61.27;92875.88;2068328;69;20572;-74
2022/02/01 12:28:44;;;;;;;11.65;6.22;;;;;;;5.09;60.61;92865.38;2067378;69;20220;-72
2022/02/01 12:31:12;;;;;;;14.85;7.70;;;;;;;4.63;61.63;92861.47;2067911;69;20247;-71
2022/02/01 12:33:41;;;;;;;12.30;6.35;;;;;;;4.97;61.36;92858.03;2070640;69;20691;-70
2022/02/01 12:36:08;;;;;;;8.75;4.93;;;;;;;4.99;61.04;92866.56;2070982;69;20758;-69
2022/02/01 12:38:35;;;;;;;5.53;2.67;;;;;;;4.95;63.29;92849.50;2070989;69;20537;-68
2022/02/01 12:41:20;;;;;;;5.18;2.38;;;;;;;4.63;60.60;92845.50;2068208;69;20131;-68
2022/02/01 12:45:44;;;;;;;3.72;2.15;;;;;;;4.53;60.19;92852.97;2068110;69;20192;-70
2022/02/01 12:46:43;;;;;;;5.47;3.22;;;;;;;4.93;61.70;92857.72;2068212;69;20133;-68
2022/02/01 12:49:09;;;;;;;4.63;2.60;;;;;;;4.85;61.68;92852.19;2068175;69;20137;-69
2022/02/01 12:51:43;;;;;;;4.13;2.28;;;;;;;4.94;61.48;92839.66;2068292;69;20554;-68
2022/02/01 12:54:23;;;;;;;3.63;1.92;;;;;;;4.89;62.89;92824.63;2067706;69;20149;-68
2022/02/01 12:56:50;;;;;;;4.60;2.90;;;;;;;4.97;63.78;92824.56;2064779;69;20516;-71
2022/02/01 12:59:18;;;;;;;3.97;2.65;;;;;;;4.90;61.96;92803.78;2068270;69;20144;-68
2022/02/01 13:01:45;;;;;;;13.68;7.97;;;;;;;4.75;62.04;92801.88;2068226;69;20149;-70
2022/02/01 13:04:20;;;;;;;12.52;5.60;;;;;;;4.76;62.95;92808.19;2068084;69;20308;-68
2022/02/01 13:06:47;;;;;;;7.03;4.72;;;;;;;5.03;61.56;92795.09;2068260;69;20604;-68
2022/02/01 13:14:42;;;;;;;7.65;3.65;;;;;;;5.13;61.37;92781.25;2065708;69;20224;-68
2022/02/01 13:20:10;;;;;;;5.07;2.10;;;;;;;5.19;60.97;92776.16;2068312;69;20592;-68
2022/02/01 13:22:48;;;;;;;3.08;1.55;;;;;;;5.49;59.58;92769.50;2068484;69;20156;-68
2022/02/01 13:25:14;;;;;;;4.50;1.60;;;;;;;5.52;59.27;92757.19;2070472;69;20298;-68